createdAt,value
2023-05-19T00:00:00.371Z,11.60
2023-05-19T00:02:27.972Z,11.70
2023-05-19T00:04:55.825Z,11.20
2023-05-19T00:07:29.213Z,11.60
2023-05-19T00:09:56.886Z,11.60
2023-05-19T00:12:24.573Z,11.60
2023-05-19T00:14:52.193Z,11.50
2023-05-19T00:17:20.447Z,11.60
2023-05-19T00:19:48.042Z,11.50
2023-05-19T00:22:16.107Z,11.50
2023-05-19T00:24:43.583Z,11.50
2023-05-19T00:27:11.116Z,11.50
2023-05-19T00:29:38.556Z,10.90
2023-05-19T00:32:06.314Z,11.50
2023-05-19T00:34:33.894Z,11.40
2023-05-19T00:37:01.270Z,10.60
2023-05-19T00:39:28.661Z,11.40
2023-05-19T00:41:56.248Z,11.40
2023-05-19T00:44:23.578Z,11.40
2023-05-19T00:46:51.012Z,11.40
2023-05-19T00:49:18.384Z,11.40
2023-05-19T00:51:46.517Z,11.40
2023-05-19T00:54:13.854Z,11.40
2023-05-19T00:56:41.559Z,11.40
2023-05-19T00:59:08.952Z,11.40
2023-05-19T01:01:36.888Z,11.40
2023-05-19T01:04:05.651Z,10.70
2023-05-19T01:06:33.135Z,11.40
2023-05-19T01:09:00.479Z,11.30
2023-05-19T01:11:27.894Z,11.40
2023-05-19T01:13:56.183Z,11.30
2023-05-19T01:16:47.282Z,11.30
2023-05-19T01:19:37.227Z,11.40
2023-05-19T01:22:37.380Z,11.40
2023-05-19T01:25:29.976Z,11.40
2023-05-19T01:28:06.512Z,11.30
2023-05-19T01:30:52.790Z,11.30
2023-05-19T01:33:22.775Z,11.20
2023-05-19T01:35:51.104Z,11.20
2023-05-19T01:38:20.615Z,11.30
2023-05-19T01:40:49.572Z,11.30
2023-05-19T01:43:20.481Z,11.60
2023-05-19T01:45:49.101Z,11.30
2023-05-19T01:48:17.825Z,11.30
2023-05-19T01:50:45.453Z,11.20
2023-05-19T01:53:12.950Z,11.30
2023-05-19T01:55:48.250Z,11.30
2023-05-19T01:58:19.115Z,11.30
2023-05-19T02:00:58.493Z,11.20
2023-05-19T02:03:52.198Z,11.30
2023-05-19T02:06:38.461Z,11.20
2023-05-19T02:09:36.782Z,11.20
2023-05-19T02:12:23.460Z,11.20
2023-05-19T02:14:59.762Z,11.20
2023-05-19T02:17:33.284Z,11.20
2023-05-19T02:20:01.087Z,11.20
2023-05-19T02:22:28.485Z,11.10
2023-05-19T02:24:57.581Z,11.10
2023-05-19T02:27:24.974Z,11.10
2023-05-19T02:29:52.737Z,11.10
2023-05-19T02:32:21.147Z,11.10
2023-05-19T02:34:48.544Z,11.10
2023-05-19T02:37:16.814Z,11.10
2023-05-19T02:39:44.860Z,11.10
2023-05-19T02:42:12.771Z,11.10
2023-05-19T02:44:40.055Z,11.00
2023-05-19T02:47:07.376Z,11.00
2023-05-19T02:49:37.997Z,11.80
2023-05-19T02:52:06.831Z,11.00
2023-05-19T02:54:35.152Z,11.00
2023-05-19T02:57:02.547Z,11.00
2023-05-19T02:59:29.863Z,11.00
2023-05-19T03:02:01.251Z,11.70
2023-05-19T03:04:29.738Z,11.00
2023-05-19T03:06:57.876Z,11.00
2023-05-19T03:09:25.367Z,11.00
2023-05-19T03:11:52.756Z,11.00
2023-05-19T03:14:24.063Z,11.00
2023-05-19T03:16:51.769Z,11.00
2023-05-19T03:19:19.342Z,11.00
2023-05-19T03:21:47.738Z,11.00
2023-05-19T03:24:15.092Z,11.00
2023-05-19T03:26:42.877Z,11.00
2023-05-19T03:29:10.554Z,10.90
2023-05-19T03:31:38.107Z,10.60
2023-05-19T03:34:05.656Z,10.90
2023-05-19T03:36:33.144Z,10.90
2023-05-19T03:39:00.819Z,10.90
2023-05-19T03:41:28.163Z,10.90
2023-05-19T03:43:55.528Z,10.40
2023-05-19T03:46:22.872Z,10.90
2023-05-19T03:48:50.764Z,10.90
2023-05-19T03:51:18.117Z,10.80
2023-05-19T03:53:45.743Z,10.80
2023-05-19T03:56:14.062Z,10.90
2023-05-19T03:58:45.125Z,10.80
2023-05-19T04:01:12.546Z,10.80
2023-05-19T04:03:40.143Z,10.80
2023-05-19T04:06:08.269Z,10.80
2023-05-19T04:08:35.962Z,10.70
2023-05-19T04:11:03.322Z,10.70
2023-05-19T04:13:35.069Z,10.70
2023-05-19T04:16:02.699Z,10.80
2023-05-19T04:18:30.094Z,10.80
2023-05-19T04:20:57.473Z,10.90
2023-05-19T04:23:24.836Z,10.80
2023-05-19T04:25:52.365Z,10.80
2023-05-19T04:28:19.739Z,10.80
2023-05-19T04:30:47.104Z,10.80
2023-05-19T04:33:14.591Z,10.80
2023-05-19T04:35:43.877Z,10.80
2023-05-19T04:38:12.156Z,10.80
2023-05-19T04:40:43.237Z,10.90
2023-05-19T04:43:11.582Z,10.90
2023-05-19T04:45:42.643Z,10.90
2023-05-19T04:48:10.071Z,11.00
2023-05-19T04:50:39.078Z,11.00
2023-05-19T04:53:07.093Z,11.00
2023-05-19T04:55:34.812Z,11.10
2023-05-19T04:58:02.169Z,11.20
2023-05-19T05:00:30.026Z,11.20
2023-05-19T05:02:58.172Z,11.20
2023-05-19T05:05:25.693Z,11.20
2023-05-19T05:07:54.256Z,11.70
2023-05-19T05:10:22.544Z,11.30
2023-05-19T05:12:50.557Z,11.40
2023-05-19T05:15:18.557Z,11.30
2023-05-19T05:17:46.642Z,11.30
2023-05-19T05:20:14.821Z,11.40
2023-05-19T05:22:42.668Z,11.40
2023-05-19T05:25:11.300Z,11.40
2023-05-19T05:27:38.832Z,11.50
2023-05-19T05:30:07.042Z,12.70
2023-05-19T05:32:34.694Z,11.60
2023-05-19T05:35:02.415Z,11.50
2023-05-19T05:37:30.995Z,11.00
2023-05-19T05:39:58.292Z,11.20
2023-05-19T05:42:27.085Z,11.60
2023-05-19T05:44:56.294Z,11.60
2023-05-19T05:47:23.906Z,13.30
2023-05-19T05:49:53.489Z,11.60
2023-05-19T05:52:22.901Z,11.60
2023-05-19T05:54:50.927Z,11.60
2023-05-19T05:57:18.437Z,11.60
2023-05-19T05:59:47.362Z,11.70
2023-05-19T06:02:14.849Z,11.70
2023-05-19T06:04:42.220Z,11.80
2023-05-19T06:07:09.984Z,11.80
2023-05-19T06:09:37.335Z,11.90
2023-05-19T06:12:05.100Z,11.90
2023-05-19T06:14:32.700Z,11.90
2023-05-19T06:17:00.090Z,12.60
2023-05-19T06:19:27.502Z,12.00
2023-05-19T06:21:55.002Z,12.10
2023-05-19T06:24:22.419Z,12.10
2023-05-19T06:26:49.719Z,12.20
2023-05-19T06:29:17.307Z,12.20
2023-05-19T06:31:44.806Z,12.20
2023-05-19T06:34:14.998Z,12.40
2023-05-19T06:36:42.758Z,12.30
2023-05-19T06:39:10.101Z,12.30
2023-05-19T06:41:37.541Z,12.30
2023-05-19T06:44:06.807Z,12.40
2023-05-19T06:46:34.187Z,12.40
2023-05-19T06:49:01.713Z,12.40
2023-05-19T06:51:29.088Z,12.40
2023-05-19T06:53:56.530Z,12.40
2023-05-19T06:56:24.090Z,12.50
2023-05-19T06:58:51.470Z,12.50
2023-05-19T07:01:19.097Z,12.60
2023-05-19T07:03:46.858Z,12.60
2023-05-19T07:06:14.423Z,12.70
2023-05-19T07:08:41.779Z,12.70
2023-05-19T07:11:09.822Z,12.80
2023-05-19T07:13:37.323Z,12.80
2023-05-19T07:16:05.075Z,12.90
2023-05-19T07:18:32.759Z,12.90
2023-05-19T07:21:00.428Z,13.00
2023-05-19T07:23:27.816Z,13.10
2023-05-19T07:25:56.668Z,13.20
2023-05-19T07:28:24.175Z,13.10
2023-05-19T07:30:52.155Z,13.20
2023-05-19T07:33:19.470Z,13.20
2023-05-19T07:35:47.162Z,13.20
2023-05-19T07:38:14.645Z,13.20
2023-05-19T07:40:42.021Z,13.30
2023-05-19T07:43:09.424Z,13.40
2023-05-19T07:45:37.141Z,13.30
2023-05-19T07:48:06.065Z,13.30
2023-05-19T07:50:33.774Z,13.20
2023-05-19T07:53:01.323Z,13.30
2023-05-19T07:55:28.886Z,13.40
2023-05-19T07:57:56.398Z,13.50
2023-05-19T08:00:23.962Z,13.40
2023-05-19T08:02:53.073Z,13.40
2023-05-19T08:05:21.542Z,13.50
2023-05-19T08:07:49.102Z,13.50
2023-05-19T08:10:16.539Z,13.60
2023-05-19T08:12:44.304Z,13.60
2023-05-19T08:15:12.058Z,13.60
2023-05-19T08:17:39.502Z,13.50
2023-05-19T08:20:09.101Z,13.50
2023-05-19T08:22:36.939Z,13.50
2023-05-19T08:25:05.768Z,13.60
2023-05-19T08:27:33.658Z,13.60
2023-05-19T08:30:01.130Z,13.80
2023-05-19T08:32:28.498Z,13.80
2023-05-19T08:34:56.117Z,13.90
2023-05-19T08:37:23.484Z,13.90
2023-05-19T08:39:50.995Z,14.00
2023-05-19T08:42:18.408Z,14.00
2023-05-19T08:44:45.844Z,13.90
2023-05-19T08:47:15.361Z,14.00
2023-05-19T08:49:47.258Z,14.00
2023-05-19T08:52:31.427Z,13.90
2023-05-19T08:55:09.716Z,13.90
2023-05-19T08:57:38.187Z,13.90
2023-05-19T09:00:12.377Z,13.70
2023-05-19T09:02:50.450Z,13.80
2023-05-19T09:05:27.569Z,13.80
2023-05-19T09:07:55.337Z,13.80
2023-05-19T09:10:22.927Z,13.80
2023-05-19T09:12:51.425Z,13.80
2023-05-19T09:15:19.404Z,13.80
2023-05-19T09:17:48.421Z,14.30
2023-05-19T09:20:17.679Z,13.90
2023-05-19T09:22:47.341Z,13.90
2023-05-19T09:25:24.164Z,14.00
2023-05-19T09:27:51.556Z,14.00
2023-05-19T09:30:19.734Z,14.00
2023-05-19T09:32:50.401Z,14.00
2023-05-19T09:35:20.331Z,13.90
2023-05-19T09:37:48.473Z,13.90
2023-05-19T09:40:16.430Z,14.00
2023-05-19T09:42:46.640Z,14.00
2023-05-19T09:45:14.014Z,14.00
2023-05-19T09:47:42.382Z,14.10
2023-05-19T09:50:12.031Z,13.90
2023-05-19T09:52:41.028Z,14.10
2023-05-19T09:55:13.057Z,14.20
2023-05-19T09:57:40.987Z,14.20
2023-05-19T10:00:18.807Z,14.60
2023-05-19T10:02:47.726Z,14.20
2023-05-19T10:05:17.716Z,14.30
2023-05-19T10:07:48.485Z,14.30
2023-05-19T10:10:16.321Z,14.30
2023-05-19T10:12:43.961Z,14.30
2023-05-19T10:15:16.898Z,14.30
2023-05-19T10:17:45.426Z,14.30
2023-05-19T10:20:17.372Z,14.30
2023-05-19T10:22:46.571Z,14.30
2023-05-19T10:25:15.289Z,14.30
2023-05-19T10:27:54.473Z,14.30
2023-05-19T10:30:29.910Z,14.30
2023-05-19T10:33:00.468Z,14.40
2023-05-19T10:35:34.175Z,14.20
2023-05-19T10:38:20.472Z,14.30
2023-05-19T10:41:01.301Z,14.30
2023-05-19T10:43:40.571Z,14.70
2023-05-19T10:46:07.957Z,14.30
2023-05-19T10:48:38.153Z,14.20
2023-05-19T10:51:07.315Z,14.20
2023-05-19T10:53:35.214Z,14.20
2023-05-19T10:56:04.159Z,14.30
2023-05-19T10:58:49.514Z,14.30
2023-05-19T11:01:24.602Z,14.40
2023-05-19T11:03:54.058Z,14.40
2023-05-19T11:06:29.728Z,14.50
2023-05-19T11:09:05.448Z,14.60
2023-05-19T11:11:54.887Z,14.70
2023-05-19T11:14:32.610Z,15.10
2023-05-19T11:17:00.695Z,14.80
2023-05-19T11:19:33.267Z,14.80
2023-05-19T11:22:12.542Z,14.70
2023-05-19T11:24:50.171Z,14.70
2023-05-19T11:27:29.172Z,14.80
2023-05-19T11:30:11.553Z,14.50
2023-05-19T11:32:39.973Z,14.50
2023-05-19T11:35:08.981Z,14.50
2023-05-19T11:37:36.829Z,14.60
2023-05-19T11:40:07.276Z,14.70
2023-05-19T11:42:35.870Z,14.60
2023-05-19T11:45:06.933Z,14.90
2023-05-19T11:47:47.031Z,15.00
2023-05-19T11:50:20.687Z,15.00
2023-05-19T11:52:48.538Z,15.00
2023-05-19T11:55:22.238Z,15.00
2023-05-19T11:58:07.700Z,14.90
2023-05-19T12:00:39.836Z,14.90
2023-05-19T12:03:09.156Z,14.90
2023-05-19T12:05:43.149Z,14.90
2023-05-19T12:08:12.325Z,14.90
2023-05-19T12:10:40.870Z,15.00
2023-05-19T12:13:10.162Z,15.10
2023-05-19T12:15:39.237Z,15.10
2023-05-19T12:18:07.333Z,15.10
2023-05-19T12:20:36.142Z,15.10
2023-05-19T12:23:04.634Z,15.20
2023-05-19T12:25:32.855Z,15.20
2023-05-19T12:28:05.248Z,15.30
2023-05-19T12:30:34.630Z,15.50
2023-05-19T12:33:03.412Z,15.60
2023-05-19T12:35:36.481Z,15.70
2023-05-19T12:38:07.652Z,15.90
2023-05-19T12:40:36.509Z,16.00
2023-05-19T12:43:04.559Z,16.10
2023-05-19T12:45:36.527Z,16.10
2023-05-19T12:48:05.947Z,16.10
2023-05-19T12:50:34.385Z,16.10
2023-05-19T12:53:02.176Z,16.10
2023-05-19T12:55:30.482Z,16.20
2023-05-19T12:57:58.749Z,16.40
2023-05-19T13:00:28.705Z,16.40
2023-05-19T13:03:07.463Z,16.40
2023-05-19T13:05:38.415Z,16.40
2023-05-19T13:08:07.867Z,16.50
2023-05-19T13:10:36.878Z,16.50
2023-05-19T13:13:05.480Z,16.60
2023-05-19T13:15:34.579Z,16.50
2023-05-19T13:18:04.148Z,16.50
2023-05-19T13:20:32.324Z,16.50
2023-05-19T13:23:00.558Z,16.50
2023-05-19T13:25:28.298Z,16.50
2023-05-19T13:27:56.782Z,16.60
2023-05-19T13:30:24.457Z,16.60
2023-05-19T13:32:52.837Z,16.60
2023-05-19T13:35:20.618Z,16.60
2023-05-19T13:37:49.159Z,16.60
2023-05-19T13:40:17.567Z,16.60
2023-05-19T13:42:45.585Z,16.60
2023-05-19T13:45:13.078Z,16.70
2023-05-19T13:47:40.665Z,16.80
2023-05-19T13:50:08.708Z,16.90
2023-05-19T13:52:36.187Z,17.00
2023-05-19T13:55:03.911Z,16.90
2023-05-19T13:57:31.240Z,17.10
2023-05-19T14:00:03.161Z,17.20
2023-05-19T14:02:31.137Z,17.20
2023-05-19T14:04:58.846Z,17.20
2023-05-19T14:07:26.287Z,17.20
2023-05-19T14:09:53.729Z,17.20
2023-05-19T14:12:27.550Z,17.20
2023-05-19T14:14:58.849Z,17.20
2023-05-19T14:17:28.794Z,17.10
2023-05-19T14:19:56.607Z,17.10
2023-05-19T14:22:24.447Z,17.10
2023-05-19T14:24:52.013Z,17.00
2023-05-19T14:27:19.470Z,17.00
2023-05-19T14:35:44.204Z,16.80
2023-05-19T14:38:48.240Z,16.80
2023-05-19T14:41:39.796Z,16.90
2023-05-19T14:44:13.292Z,16.90
2023-05-19T14:46:43.290Z,16.90
2023-05-19T14:49:10.842Z,17.00
2023-05-19T14:51:38.275Z,18.30
2023-05-19T14:54:05.661Z,17.10
2023-05-19T14:56:33.088Z,17.10
2023-05-19T14:59:01.834Z,17.10
2023-05-19T15:01:29.413Z,17.10
2023-05-19T15:03:57.205Z,17.10
2023-05-19T15:06:24.750Z,17.10
2023-05-19T15:08:52.326Z,17.10
2023-05-19T15:11:19.710Z,17.10
2023-05-19T15:13:47.103Z,17.10
2023-05-19T15:16:16.970Z,17.10
2023-05-19T15:18:45.640Z,17.10
2023-05-19T15:21:13.378Z,17.10
2023-05-19T15:23:40.756Z,17.10
2023-05-19T15:26:08.197Z,17.10
2023-05-19T15:28:35.774Z,17.20
2023-05-19T15:31:03.272Z,17.10
2023-05-19T15:33:31.172Z,17.20
2023-05-19T15:35:58.599Z,17.20
2023-05-19T15:38:27.734Z,17.10
2023-05-19T15:40:56.996Z,17.10
2023-05-19T15:43:25.540Z,17.10
2023-05-19T15:45:55.255Z,17.60
2023-05-19T15:48:22.701Z,17.00
2023-05-19T15:50:51.571Z,17.00
2023-05-19T15:53:20.471Z,17.00
2023-05-19T15:55:47.834Z,17.00
2023-05-19T15:58:16.660Z,17.00
2023-05-19T16:00:44.519Z,17.00
2023-05-19T16:03:12.171Z,17.00
2023-05-19T16:05:39.542Z,17.00
2023-05-19T16:08:08.709Z,16.90
2023-05-19T16:10:36.390Z,17.00
2023-05-19T16:13:03.861Z,17.00
2023-05-19T16:15:31.228Z,17.00
2023-05-19T16:17:58.893Z,17.00
2023-05-19T16:20:28.262Z,17.00
2023-05-19T16:22:56.169Z,17.00
2023-05-19T16:25:23.722Z,17.10
2023-05-19T16:27:51.531Z,17.10
2023-05-19T16:30:18.988Z,17.10
2023-05-19T16:32:46.845Z,17.20
2023-05-19T16:35:14.400Z,17.20
2023-05-19T16:37:41.899Z,17.20
2023-05-19T16:40:09.653Z,17.20
2023-05-19T16:42:39.490Z,17.20
2023-05-19T16:45:07.740Z,17.20
2023-05-19T16:47:35.587Z,17.20
2023-05-19T16:50:03.652Z,17.20
2023-05-19T16:52:31.215Z,17.20
2023-05-19T16:54:58.584Z,17.20
2023-05-19T16:57:26.211Z,17.30
2023-05-19T16:59:53.753Z,17.30
2023-05-19T17:02:21.425Z,17.30
2023-05-19T17:04:49.004Z,17.20
2023-05-19T17:07:16.947Z,17.20
2023-05-19T17:09:44.957Z,17.20
2023-05-19T17:12:12.388Z,17.10
2023-05-19T17:14:40.210Z,17.10
2023-05-19T17:17:07.702Z,17.10
2023-05-19T17:19:35.257Z,17.20
2023-05-19T17:22:02.768Z,17.10
2023-05-19T17:24:32.462Z,17.10
2023-05-19T17:27:00.335Z,17.10
2023-05-19T17:29:30.517Z,17.10
2023-05-19T17:31:58.069Z,17.00
2023-05-19T17:34:25.812Z,17.00
2023-05-19T17:36:53.202Z,16.90
2023-05-19T17:39:20.591Z,16.80
2023-05-19T17:41:48.058Z,16.50
2023-05-19T17:44:15.553Z,16.60
2023-05-19T17:46:42.953Z,16.50
2023-05-19T17:49:10.882Z,16.40
2023-05-19T17:51:38.693Z,16.20
2023-05-19T17:54:06.754Z,16.40
2023-05-19T17:56:39.602Z,16.50
2023-05-19T17:59:07.254Z,16.50
2023-05-19T18:01:34.954Z,16.90
2023-05-19T18:04:02.827Z,16.50
2023-05-19T18:06:31.874Z,16.40
2023-05-19T18:09:03.352Z,16.40
2023-05-19T18:11:30.781Z,16.40
2023-05-19T18:13:58.730Z,16.60
2023-05-19T18:16:26.248Z,16.40
2023-05-19T18:18:53.747Z,16.30
2023-05-19T18:21:21.474Z,16.30
2023-05-19T18:23:49.009Z,16.30
2023-05-19T18:26:16.484Z,16.30
2023-05-19T18:28:44.009Z,16.20
2023-05-19T18:31:17.498Z,16.20
2023-05-19T18:33:46.686Z,16.20
2023-05-19T18:36:16.511Z,16.20
2023-05-19T18:38:43.972Z,15.20
2023-05-19T18:41:12.855Z,16.10
2023-05-19T18:43:40.355Z,16.10
2023-05-19T18:46:07.730Z,16.10
2023-05-19T18:48:35.272Z,16.00
2023-05-19T18:51:03.910Z,16.00
2023-05-19T18:53:34.945Z,16.00
2023-05-19T18:56:05.465Z,15.90
2023-05-19T18:58:32.905Z,15.90
2023-05-19T19:01:00.270Z,16.00
2023-05-19T19:03:28.673Z,15.80
2023-05-19T19:05:57.213Z,15.70
2023-05-19T19:08:24.833Z,15.60
2023-05-19T19:10:54.114Z,15.60
2023-05-19T19:13:22.539Z,15.50
2023-05-19T19:15:49.924Z,15.50
2023-05-19T19:18:17.349Z,15.40
2023-05-19T19:20:44.956Z,15.40
2023-05-19T19:23:12.402Z,15.30
2023-05-19T19:25:39.757Z,15.30
2023-05-19T19:28:07.427Z,15.20
2023-05-19T19:30:35.127Z,15.10
2023-05-19T19:33:04.548Z,15.00
2023-05-19T19:35:32.172Z,15.00
2023-05-19T19:37:59.613Z,14.90
2023-05-19T19:40:26.997Z,14.80
2023-05-19T19:42:54.515Z,14.80
2023-05-19T19:45:21.953Z,14.70
2023-05-19T19:47:49.370Z,14.70
2023-05-19T19:50:17.114Z,14.60
2023-05-19T19:52:44.644Z,14.50
2023-05-19T19:55:12.125Z,14.60
2023-05-19T19:57:39.547Z,14.50
2023-05-19T20:00:08.419Z,14.40
2023-05-19T20:02:45.479Z,14.30
2023-05-19T20:05:19.107Z,14.30
2023-05-19T20:07:46.479Z,14.20
2023-05-19T20:10:14.072Z,14.10
2023-05-19T20:12:41.641Z,14.10
2023-05-19T20:15:09.552Z,14.40
2023-05-19T20:17:36.955Z,14.00
2023-05-19T20:20:09.907Z,13.90
2023-05-19T20:22:37.321Z,13.90
2023-05-19T20:25:07.828Z,13.30
2023-05-19T20:27:35.283Z,13.80
2023-05-19T20:30:02.677Z,13.80
2023-05-19T20:32:30.119Z,13.30
2023-05-19T20:34:57.738Z,13.60
2023-05-19T20:37:25.131Z,13.60
2023-05-19T20:39:52.473Z,13.50
2023-05-19T20:42:19.904Z,13.50
2023-05-19T20:44:47.294Z,13.40
2023-05-19T20:47:14.763Z,13.50
2023-05-19T20:49:42.129Z,13.40
2023-05-19T20:52:09.687Z,13.40
2023-05-19T20:54:37.076Z,13.40
2023-05-19T20:57:10.013Z,13.30
2023-05-19T20:59:37.366Z,13.30
2023-05-19T21:02:06.506Z,12.40
2023-05-19T21:04:34.684Z,13.30
2023-05-19T21:07:02.151Z,13.30
2023-05-19T21:09:29.812Z,13.30
2023-05-19T21:11:57.249Z,13.30
2023-05-19T21:14:25.472Z,13.30
2023-05-19T21:16:56.321Z,13.20
2023-05-19T21:19:26.414Z,13.20
2023-05-19T21:21:54.142Z,12.90
2023-05-19T21:24:21.498Z,13.20
2023-05-19T21:26:49.589Z,13.20
2023-05-19T21:29:17.199Z,13.20
2023-05-19T21:31:44.649Z,13.30
2023-05-19T21:34:12.599Z,13.20
2023-05-19T21:36:39.928Z,13.20
2023-05-19T21:39:07.336Z,13.30
2023-05-19T21:41:35.667Z,12.00
2023-05-19T21:44:03.576Z,13.20
2023-05-19T21:46:31.157Z,13.20
2023-05-19T21:48:58.624Z,13.20
2023-05-19T21:51:26.111Z,13.20
2023-05-19T21:53:53.597Z,13.10
2023-05-19T21:56:21.162Z,13.10
2023-05-19T21:58:48.513Z,13.10
2023-05-19T22:01:17.030Z,13.00
2023-05-19T22:03:45.373Z,12.90
2023-05-19T22:06:12.868Z,12.90
2023-05-19T22:08:40.865Z,12.90
2023-05-19T22:11:09.153Z,12.90
2023-05-19T22:13:41.144Z,12.80
2023-05-19T22:16:08.649Z,12.80
2023-05-19T22:18:36.183Z,12.90
2023-05-19T22:21:03.833Z,13.20
2023-05-19T22:23:31.418Z,12.80
2023-05-19T22:25:58.801Z,12.80
2023-05-19T22:28:27.230Z,12.80
2023-05-19T22:30:55.954Z,12.80
2023-05-19T22:33:23.503Z,12.80
2023-05-19T22:35:51.138Z,12.80
2023-05-19T22:38:18.515Z,12.80
2023-05-19T22:40:45.992Z,12.80
2023-05-19T22:43:13.338Z,12.80
2023-05-19T22:45:41.203Z,12.80
2023-05-19T22:48:08.624Z,12.80
2023-05-19T22:50:36.054Z,12.80
2023-05-19T22:53:03.554Z,12.80
2023-05-19T22:55:30.938Z,12.70
2023-05-19T22:57:58.301Z,12.70
2023-05-19T23:00:25.706Z,12.70
2023-05-19T23:02:53.204Z,12.30
2023-05-19T23:05:20.938Z,12.60
2023-05-19T23:07:48.355Z,12.60
2023-05-19T23:10:15.971Z,12.60
2023-05-19T23:12:44.367Z,12.60
2023-05-19T23:15:12.120Z,12.60
2023-05-19T23:17:39.732Z,12.60
2023-05-19T23:20:07.900Z,12.60
2023-05-19T23:22:35.492Z,12.60
2023-05-19T23:25:07.647Z,12.50
2023-05-19T23:27:36.531Z,11.80
2023-05-19T23:30:04.688Z,12.40
2023-05-19T23:32:32.444Z,12.40
2023-05-19T23:35:13.418Z,12.50
2023-05-19T23:37:41.309Z,12.40
2023-05-19T23:40:10.684Z,12.40
2023-05-19T23:42:40.632Z,12.30
2023-05-19T23:45:08.544Z,12.30
2023-05-19T23:47:36.161Z,12.30
2023-05-19T23:50:03.781Z,12.20
2023-05-19T23:52:31.854Z,12.20
2023-05-19T23:54:59.314Z,12.20
2023-05-19T23:57:26.802Z,12.20
2023-05-19T23:59:54.411Z,12.20
